Weather at Täby Sjöflygklubb

Public forecast

Using degrees Celsius for public forecast. Weather courtesy of forecast.io.

Closest aviation weather report (METAR) to Täby Sjöflygklubb

Closest report is Stockholm-Bromma Airport, 8.2 nm (15.2 km) SW. Retrieved 2022/01/17 15:20 UTC (10 minutes ago):

ESSB 171520Z 29010KT CAVOK 00/M07 Q1012

Closest aviation forecast (TAF) to Täby Sjöflygklubb

Forecast is more than 12 hours old.

Closest forecast is Stockholm-Bromma Airport, 8.2 nm (15.2 km) SW. Retrieved 2017/03/27 06:35 UTC (5 years ago):

TAF ESSB 270530Z 2706/2724 27008KT CAVOK BECMG 2710/2713 29015G25KT